Pongola Airport

Jump to: basic info | weather | comments

Related pages: nearby airports | nearby navaids | notams | map

Basic information (top)

Codes: FAPL
Location: lon -27.362200, lat 31.606701, elev 942 ft / 287 m msl
Status: small_airport
Scheduled airline service: no
Links: Wikipedia Mobile

Weather (top)

Current conditions for Nhlangano Airport 26nm (47km) NW (rec'd 2014/09/11 18:00Z):

FDNH 111800Z AUTO 00000KT //// // ////// ///// Q////

Airport forecast for Matsapha Airport 53nm (97km) NNW (rec'd 2014/10/01 12:00Z):

TAF FDMS 011000Z 0112/0118 15008KT 9999 SCT035 
      BECMG 0116/0118 BKN030

Latest comments (top)

Food: 2 km walk to the Wimpy in town, and it ... [read]

More... (top)

See also NOTAMs and nearby airports and navaids, or visit the Pongola Airport page at the main OurAirports website..